createdAt,value
2023-05-02T00:10:24.892Z,96095.66
2023-05-02T00:25:26.472Z,96099.97
2023-05-02T00:40:28.040Z,96102.97
2023-05-02T00:55:29.646Z,96093.59
2023-05-02T01:10:31.240Z,96098.34
2023-05-02T01:25:32.873Z,96110.91
2023-05-02T01:40:34.517Z,96126.72
2023-05-02T01:55:36.140Z,96132.81
2023-05-02T02:10:37.840Z,96132.19
2023-05-02T02:25:40.580Z,96144.03
2023-05-02T02:40:42.512Z,96157.19
2023-05-02T02:55:44.686Z,96172.72
2023-05-02T03:10:46.284Z,96201.34
2023-05-02T03:25:48.033Z,96206.25
2023-05-02T03:40:55.628Z,96214.00
2023-05-02T03:55:57.698Z,96242.94
2023-05-02T04:11:08.216Z,96252.63
2023-05-02T04:26:10.796Z,96266.78
2023-05-02T04:41:19.877Z,96277.06
2023-05-02T04:56:27.564Z,96290.09
2023-05-02T05:11:29.354Z,96302.59
2023-05-02T05:26:32.559Z,96305.25
2023-05-02T05:41:35.380Z,96337.94
2023-05-02T05:56:41.209Z,96362.22
2023-05-02T06:11:47.482Z,96377.78
2023-05-02T06:26:49.230Z,96398.19
2023-05-02T06:41:50.918Z,96406.28
2023-05-02T06:56:53.526Z,96430.81
2023-05-02T07:11:55.128Z,96443.34
2023-05-02T07:26:56.772Z,96459.84
2023-05-02T07:41:58.452Z,96468.50
2023-05-02T07:57:03.279Z,96479.69
2023-05-02T08:12:05.534Z,96493.38
2023-05-02T08:27:07.181Z,96503.69
2023-05-02T08:42:08.768Z,96513.50
2023-05-02T08:57:10.499Z,96533.47
2023-05-02T09:12:12.120Z,96528.31
2023-05-02T09:27:13.720Z,96530.91
2023-05-02T09:42:15.325Z,96526.34
2023-05-02T09:57:16.934Z,96525.09
2023-05-02T10:12:18.523Z,96531.91
2023-05-02T10:27:20.191Z,96529.78
2023-05-02T10:42:21.826Z,96521.22
2023-05-02T10:57:23.415Z,96521.75
2023-05-02T11:12:25.210Z,96516.00
2023-05-02T11:27:26.827Z,96500.44
2023-05-02T11:42:29.005Z,96491.03
2023-05-02T11:57:30.592Z,96503.19
2023-05-02T12:12:32.214Z,96514.41
2023-05-02T12:27:34.833Z,96542.75
2023-05-02T12:42:36.558Z,96553.44
2023-05-02T12:57:38.138Z,96558.81
2023-05-02T13:12:39.862Z,96586.00
2023-05-02T13:27:41.484Z,96582.47
2023-05-02T13:42:43.257Z,96560.88
2023-05-02T13:57:45.151Z,96560.00
2023-05-02T14:12:46.768Z,96550.75
2023-05-02T14:27:48.438Z,96546.38
2023-05-02T14:42:50.174Z,96547.56
2023-05-02T14:57:52.206Z,96548.94
2023-05-02T15:12:54.012Z,96554.47
2023-05-02T15:27:55.774Z,96567.78
2023-05-02T15:42:57.393Z,96583.88
2023-05-02T15:57:59.111Z,96581.38
2023-05-02T16:13:01.709Z,96582.25
2023-05-02T16:28:03.328Z,96585.84
2023-05-02T16:43:05.117Z,96602.78
2023-05-02T16:58:09.511Z,96598.41
2023-05-02T17:13:11.973Z,96593.66
2023-05-02T17:28:13.522Z,96609.94
2023-05-02T17:43:15.098Z,96616.53
2023-05-02T17:58:16.719Z,96637.72
2023-05-02T18:13:18.314Z,96653.91
2023-05-02T18:28:19.935Z,96673.09
2023-05-02T18:43:22.187Z,96686.81
2023-05-02T18:58:23.813Z,96699.41
2023-05-02T19:13:27.901Z,96708.72
2023-05-02T19:28:29.510Z,96734.34
2023-05-02T19:43:31.462Z,96750.63
2023-05-02T19:58:33.106Z,96772.72
2023-05-02T20:13:34.718Z,96780.75
2023-05-02T20:28:36.305Z,96801.41
2023-05-02T20:43:39.900Z,96811.47
2023-05-02T20:58:41.531Z,96809.53
2023-05-02T21:13:43.230Z,96810.53
2023-05-02T21:28:44.877Z,96804.03
2023-05-02T21:43:46.530Z,96812.03
2023-05-02T21:58:49.796Z,96810.66
2023-05-02T22:13:51.416Z,96800.47
2023-05-02T22:28:53.129Z,96810.81
2023-05-02T22:43:54.705Z,96821.50
2023-05-02T22:58:56.291Z,96831.69
2023-05-02T23:13:57.864Z,96818.78
2023-05-02T23:28:59.464Z,96816.16
2023-05-02T23:44:01.255Z,96826.41
2023-05-02T23:59:02.882Z,96832.94
